Time;durP1;ratioP1;P1;durP2;ratioP2;P2;SDS_P1;SDS_P2;PMS_P1;PMS_P2;Temp;Humidity;BMP_temperature;BMP_pressure;BME280_temperature;BME280_humidity;BME280_pressure;Samples;Min_cycle;Max_cycle;Signal;HPM_P1;HPM_P2
2023/02/24 00:04:58;;;;;;;34.23;22.20;;;;;;;3.50;85.53;98525.89;1578644;91;21165;-82
2023/02/24 00:07:43;;;;;;;36.13;22.22;;;;;;;3.49;85.54;98510.86;1579252;90;21041;-82
2023/02/24 00:10:20;;;;;;;32.73;21.42;;;;;;;3.53;85.84;98511.61;1579451;91;21886;-81
2023/02/24 00:12:58;;;;;;;33.50;22.48;;;;;;;3.52;86.12;98503.45;1578547;91;21823;-82
2023/02/24 00:15:44;;;;;;;;;;;;;;;;;;;;;
2023/02/24 00:18:09;;;;;;;34.10;22.13;;;;;;;3.53;86.41;98520.64;1571910;91;21029;-81
2023/02/24 00:20:45;;;;;;;35.00;22.58;;;;;;;3.53;86.61;98505.16;1578256;91;21290;-80
2023/02/24 00:27:19;;;;;;;33.67;21.23;;;;;;;3.54;86.91;98488.77;1575215;91;21081;-80
2023/02/24 00:33:40;;;;;;;32.90;20.80;;;;;;;3.56;87.48;98486.97;1574972;91;21847;-82
2023/02/24 00:40:22;;;;;;;37.83;21.87;;;;;;;3.55;87.78;98477.53;1574940;91;21124;-80
2023/02/24 00:46:54;;;;;;;34.88;22.77;;;;;;;3.55;88.30;98455.59;1575197;91;20998;-81
2023/02/24 00:53:34;;;;;;;36.63;23.18;;;;;;;3.49;88.68;98453.25;1575186;91;21025;-81
2023/02/24 01:00:14;;;;;;;46.15;25.62;;;;;;;3.47;89.53;98433.11;1575304;91;21818;-80
2023/02/24 01:06:51;;;;;;;40.40;23.55;;;;;;;3.45;89.91;98429.77;1575263;91;21529;-82
2023/02/24 01:13:25;;;;;;;34.55;22.05;;;;;;;3.46;90.48;98410.80;1574876;91;21096;-81
2023/02/24 01:19:49;;;;;;;37.10;24.05;;;;;;;3.47;91.12;98412.47;1574370;89;21981;-82
2023/02/24 01:25:50;;;;;;;40.90;24.00;;;;;;;3.51;91.33;98411.00;1575083;91;21593;-81
2023/02/24 01:32:29;;;;;;;36.65;22.22;;;;;;;3.52;91.39;98405.39;1575475;91;21098;-80
2023/02/24 01:39:00;;;;;;;33.05;19.85;;;;;;;3.54;91.71;98395.85;1575456;91;21110;-80
2023/02/24 01:45:40;;;;;;;29.42;18.25;;;;;;;3.57;92.04;98378.49;1575355;91;21096;-80
2023/02/24 01:52:27;;;;;;;33.00;17.62;;;;;;;3.59;92.43;98377.16;1574458;91;21293;-80
2023/02/24 01:59:03;;;;;;;25.32;16.02;;;;;;;3.65;92.77;98375.61;1574578;91;21299;-81
2023/02/24 02:05:39;;;;;;;17.17;13.20;;;;;;;3.76;92.82;98376.02;1575165;91;21454;-79
2023/02/24 02:12:10;;;;;;;19.73;13.22;;;;;;;3.78;93.07;98361.30;1575334;91;21047;-82
2023/02/24 02:18:57;;;;;;;20.88;12.75;;;;;;;3.85;93.46;98364.46;1574915;91;21029;-81
2023/02/24 02:25:09;;;;;;;13.83;9.03;;;;;;;3.92;93.61;98354.28;1575468;91;21298;-81
2023/02/24 02:32:16;;;;;;;10.63;7.75;;;;;;;4.00;93.60;98348.30;1575354;91;21022;-79
2023/02/24 02:39:07;;;;;;;9.43;7.03;;;;;;;4.04;93.82;98349.88;1575462;91;21045;-81
2023/02/24 02:45:46;;;;;;;11.68;6.95;;;;;;;4.07;94.09;98345.03;1575368;91;21033;-81
2023/02/24 02:52:20;;;;;;;7.15;6.03;;;;;;;4.09;93.98;98334.19;1575254;91;21565;-81
2023/02/24 02:59:04;;;;;;;7.87;6.00;;;;;;;4.09;94.10;98329.02;1574801;91;21277;-82
2023/02/24 03:05:38;;;;;;;10.15;5.42;;;;;;;4.12;94.17;98326.30;1574850;91;21137;-81
2023/02/24 03:12:12;;;;;;;6.95;4.47;;;;;;;4.10;94.48;98321.65;1575350;91;21090;-81
2023/02/24 03:18:33;;;;;;;7.85;4.42;;;;;;;4.11;94.60;98312.14;1575548;91;22012;-81
2023/02/24 03:24:54;;;;;;;5.87;4.45;;;;;;;4.14;94.70;98298.64;1579683;91;21469;-80
2023/02/24 03:31:38;;;;;;;5.33;4.08;;;;;;;4.21;94.74;98307.81;1579592;91;21113;-82
2023/02/24 03:38:01;;;;;;;5.45;4.05;;;;;;;4.22;94.93;98296.55;1579186;91;21112;-81
2023/02/24 03:44:39;;;;;;;6.83;5.20;;;;;;;4.18;95.07;98297.61;1579331;91;21021;-82
2023/02/24 03:51:19;;;;;;;6.12;4.67;;;;;;;4.22;95.20;98299.14;1579448;91;21101;-81
2023/02/24 03:58:14;;;;;;;8.40;4.83;;;;;;;4.37;94.87;98289.02;1579658;91;21176;-81
2023/02/24 04:05:06;;;;;;;4.80;3.60;;;;;;;4.38;94.97;98277.80;1579222;91;21616;-81
2023/02/24 04:11:04;;;;;;;3.83;3.10;;;;;;;4.37;95.06;98269.64;1579212;91;21104;-81
2023/02/24 04:17:50;;;;;;;2.58;2.20;;;;;;;4.36;94.93;98266.69;1529476;94;22069;-81
2023/02/24 04:23:34;;;;;;;2.70;1.75;;;;;;;4.29;94.87;98271.30;1503864;95;21559;-81
2023/02/24 04:30:03;;;;;;;2.40;1.70;;;;;;;4.26;95.01;98259.36;1528899;94;21387;-82
2023/02/24 04:36:47;;;;;;;3.70;1.55;;;;;;;4.24;94.97;98253.88;1528408;94;21165;-81
2023/02/24 04:43:18;;;;;;;2.65;1.67;;;;;;;4.16;95.09;98252.92;1528441;94;21084;-81
2023/02/24 04:49:48;;;;;;;4.00;1.98;;;;;;;4.15;94.86;98257.71;1528336;94;21353;-82
2023/02/24 04:56:23;;;;;;;2.10;1.90;;;;;;;4.08;94.84;98252.42;1583074;90;21092;-82
2023/02/24 05:02:56;;;;;;;5.25;2.20;;;;;;;4.07;94.86;98244.30;1583671;90;20986;-79
2023/02/24 05:09:29;;;;;;;4.12;2.15;;;;;;;3.97;94.86;98236.56;1583480;90;21069;-81
2023/02/24 05:16:08;;;;;;;4.75;2.33;;;;;;;3.84;94.83;98234.12;1583604;90;21032;-81
2023/02/24 05:22:50;;;;;;;6.15;3.00;;;;;;;3.73;94.93;98225.13;1583235;90;21028;-81
2023/02/24 05:29:34;;;;;;;6.60;2.85;;;;;;;3.71;94.87;98225.63;1578975;91;21062;-81
2023/02/24 05:32:17;;;;;;;5.65;2.62;;;;;;;3.67;94.86;98221.52;1577662;91;21053;-82
2023/02/24 05:49:11;;;;;;;10.30;3.15;;;;;;;3.32;94.99;98212.23;1434627;100;21246;-81
2023/02/24 05:55:42;;;;;;;5.70;3.30;;;;;;;3.34;94.94;98226.37;1435218;97;21439;-81
2023/02/24 06:06:12;;;;;;;5.70;2.67;;;;;;;2.98;94.29;98232.13;1435183;100;21169;-80
2023/02/24 06:12:46;;;;;;;7.35;2.92;;;;;;;2.68;94.19;98230.31;1435149;97;21137;-78
2023/02/24 06:15:19;;;;;;;7.70;2.87;;;;;;;2.46;94.20;98224.72;1436041;98;21367;-78
2023/02/24 06:18:08;;;;;;;12.37;4.33;;;;;;;2.36;94.22;98236.26;1405463;98;21701;-81
2023/02/24 06:20:40;;;;;;;13.22;5.70;;;;;;;2.32;94.26;98242.41;1423998;100;21189;-80
2023/02/24 06:23:15;;;;;;;11.57;3.30;;;;;;;2.22;94.13;98238.52;1550319;91;21010;-79
2023/02/24 06:25:51;;;;;;;11.68;2.92;;;;;;;2.17;94.14;98233.98;1571127;91;21025;-86
2023/02/24 06:28:23;;;;;;;;;;;;;;;2.09;93.99;98219.26;1573882;91;21617;-84
2023/02/24 06:30:55;;;;;;;10.30;3.10;;;;;;;2.03;93.99;98233.65;1571288;91;20619;-84
2023/02/24 06:33:26;;;;;;;10.68;2.98;;;;;;;1.97;94.07;98223.95;1571739;91;21106;-87
2023/02/24 06:36:02;;;;;;;9.65;2.45;;;;;;;1.97;94.03;98227.82;1571354;91;21045;-87
2023/02/24 06:38:36;;;;;;;11.05;3.08;;;;;;;1.91;93.70;98234.48;1571689;91;20974;-82
2023/02/24 06:41:11;;;;;;;14.23;3.70;;;;;;;1.82;93.56;98227.52;1571645;91;21031;-82
2023/02/24 06:43:47;;;;;;;11.00;2.65;;;;;;;1.69;93.46;98220.70;1571478;91;21022;-87
2023/02/24 06:46:21;;;;;;;8.48;2.45;;;;;;;1.59;93.35;98221.91;1571515;91;21002;-81
2023/02/24 06:48:54;;;;;;;13.08;2.83;;;;;;;1.48;93.24;98232.11;1571582;91;21542;-85
2023/02/24 06:51:32;;;;;;;7.20;2.00;;;;;;;1.42;93.38;98219.47;1571554;91;21046;-81
2023/02/24 06:54:06;;;;;;;9.73;1.90;;;;;;;1.43;93.27;98223.73;1555114;91;21957;-82
2023/02/24 06:56:40;;;;;;;14.98;2.60;;;;;;;1.38;93.01;98234.63;1571390;91;21010;-80
2023/02/24 06:59:20;;;;;;;12.20;3.58;;;;;;;1.31;93.02;98215.13;1571530;91;21070;-84
2023/02/24 07:01:49;;;;;;;9.20;2.27;;;;;;;1.26;92.88;98210.59;1570707;91;21086;-90
2023/02/24 07:04:19;;;;;;;11.68;2.10;;;;;;;1.21;92.78;98203.50;1571287;91;21002;-85
2023/02/24 07:06:55;;;;;;;10.95;2.40;;;;;;;1.17;92.64;98201.91;1571677;91;21093;-85
2023/02/24 07:09:31;;;;;;;8.75;2.12;;;;;;;1.08;92.59;98195.34;1571271;91;21335;-87
2023/02/24 07:12:01;;;;;;;8.20;2.80;;;;;;;1.06;92.57;98197.95;1571291;91;21042;-86
2023/02/24 07:14:36;;;;;;;16.90;3.62;;;;;;;1.02;92.51;98190.41;1571058;91;21030;-89
2023/02/24 07:17:13;;;;;;;12.93;3.47;;;;;;;1.01;92.58;98194.72;1571563;91;21050;-81
2023/02/24 07:19:43;;;;;;;11.18;2.35;;;;;;;1.05;92.65;98190.31;1571209;91;21022;-82
2023/02/24 07:22:16;;;;;;;13.85;3.47;;;;;;;1.10;92.49;98195.69;1555312;91;21070;-82
2023/02/24 07:24:48;;;;;;;7.78;2.77;;;;;;;1.05;92.31;98192.43;1576554;90;21033;-83
2023/02/24 07:27:21;;;;;;;13.53;4.70;;;;;;;0.99;92.22;98188.78;1580050;90;21106;-84
2023/02/24 07:29:55;;;;;;;18.48;3.47;;;;;;;0.96;92.25;98186.32;1579715;91;21601;-83
2023/02/24 07:32:37;;;;;;;13.90;2.95;;;;;;;0.96;92.28;98191.46;1580183;91;21594;-84
2023/02/24 07:35:10;;;;;;;12.18;3.15;;;;;;;0.96;92.33;98181.18;1580081;91;20955;-87
2023/02/24 07:37:41;;;;;;;11.22;3.17;;;;;;;0.94;92.29;98175.24;1580117;91;21009;-86
2023/02/24 07:40:16;;;;;;;14.43;4.03;;;;;;;0.95;92.26;98169.20;1580063;91;21038;-86
2023/02/24 07:42:48;;;;;;;7.87;2.33;;;;;;;0.97;92.35;98173.85;1580351;91;21112;-93
2023/02/24 07:45:21;;;;;;;22.87;2.83;;;;;;;0.99;92.24;98165.66;1580285;91;21053;-92
2023/02/24 07:47:52;;;;;;;7.60;3.10;;;;;;;0.95;91.75;98178.19;1579814;91;21108;-89
2023/02/24 07:50:27;;;;;;;11.35;2.70;;;;;;;0.88;91.69;98167.73;1580624;91;21861;-93
2023/02/24 07:52:58;;;;;;;10.03;2.12;;;;;;;0.85;91.82;98155.83;1579635;91;21085;-87
2023/02/24 07:55:32;;;;;;;11.35;2.50;;;;;;;0.86;91.72;98159.23;1579950;91;21036;-89
2023/02/24 07:58:06;;;;;;;14.83;2.90;;;;;;;0.82;91.70;98150.80;1562734;91;21017;-86
2023/02/24 08:01:07;;;;;;;12.43;2.90;;;;;;;0.79;91.60;98144.48;1579904;91;21819;-88
2023/02/24 08:03:12;;;;;;;16.42;3.00;;;;;;;0.80;91.69;98144.86;1571688;91;21041;-90
2023/02/24 08:05:44;;;;;;;13.80;2.90;;;;;;;0.82;91.63;98131.98;1562838;91;21021;-89
2023/02/24 08:08:20;;;;;;;15.05;3.37;;;;;;;0.91;91.75;98123.95;1579873;91;21275;-87
2023/02/24 08:11:02;;;;;;;12.25;2.50;;;;;;;1.05;91.72;98120.46;1579410;90;21906;-86
2023/02/24 08:13:36;;;;;;;18.10;3.00;;;;;;;1.17;91.80;98117.91;1579917;91;21061;-83
2023/02/24 08:16:06;;;;;;;15.68;3.20;;;;;;;1.26;91.52;98124.45;1579185;90;21089;-85
2023/02/24 08:18:56;;;;;;;8.60;2.40;;;;;;;1.29;91.18;98117.95;1560542;91;21835;-84
2023/02/24 08:21:18;;;;;;;10.28;2.40;;;;;;;1.34;91.33;98113.45;1575803;91;21913;-84
2023/02/24 08:24:01;;;;;;;10.58;2.85;;;;;;;1.43;91.30;98105.43;1578991;91;20994;-85
2023/02/24 08:26:43;;;;;;;13.45;2.60;;;;;;;1.51;91.32;98109.85;1571272;91;21965;-84
2023/02/24 08:29:09;;;;;;;7.67;2.22;;;;;;;1.50;91.27;98103.01;1570024;91;21558;-84
2023/02/24 08:31:54;;;;;;;;;;;;;;;;;;;;;
2023/02/24 08:34:30;;;;;;;9.93;2.20;;;;;;;1.63;91.02;98089.72;1570365;91;21854;-85
2023/02/24 08:37:00;;;;;;;11.53;2.60;;;;;;;1.64;90.60;98106.81;1570993;91;21003;-83
2023/02/24 08:39:40;;;;;;;9.60;2.33;;;;;;;1.58;90.44;98082.16;1570550;91;20990;-85
2023/02/24 08:42:16;;;;;;;13.22;2.52;;;;;;;1.64;90.53;98083.20;1571124;91;21545;-86
2023/02/24 08:48:54;;;;;;;8.98;1.70;;;;;;;1.71;90.27;98074.80;1571427;91;21036;-84
2023/02/24 08:55:11;;;;;;;13.45;2.85;;;;;;;1.80;89.71;98061.61;1569942;91;21064;-82
2023/02/24 09:01:53;;;;;;;14.73;2.77;;;;;;;1.98;89.77;98055.73;1571055;91;21104;-84
2023/02/24 09:08:22;;;;;;;12.53;2.27;;;;;;;2.10;89.35;98069.02;1571435;91;21066;-82
2023/02/24 09:10:48;;;;;;;10.93;2.95;;;;;;;2.01;88.95;98047.88;1570912;91;21038;-85
2023/02/24 09:13:20;;;;;;;11.75;2.58;;;;;;;1.98;88.50;98058.30;1571366;91;21135;-83
2023/02/24 09:15:55;;;;;;;16.80;3.85;;;;;;;1.93;88.51;98052.52;1571326;91;21946;-86
2023/02/24 09:18:29;;;;;;;13.90;2.52;;;;;;;1.93;88.49;98041.36;1571122;91;21070;-85
2023/02/24 09:23:48;;;;;;;7.37;2.30;;;;;;;1.94;88.23;98040.48;1571485;91;21261;-79
2023/02/24 09:26:20;;;;;;;18.67;2.92;;;;;;;1.91;87.83;98045.30;1571066;91;21616;-80
2023/02/24 09:28:58;;;;;;;8.78;2.60;;;;;;;1.95;88.14;98053.28;1571186;91;21068;-77
2023/02/24 09:31:39;;;;;;;14.13;3.02;;;;;;;1.97;87.72;98056.64;1571950;91;21094;-81
2023/02/24 09:34:17;;;;;;;11.15;3.08;;;;;;;1.93;87.69;98037.08;1571781;91;21067;-81
2023/02/24 09:36:44;;;;;;;11.48;3.15;;;;;;;1.96;87.86;98034.37;1571318;91;21060;-77
2023/02/24 09:39:17;;;;;;;12.37;2.70;;;;;;;2.07;87.93;98027.95;1570178;91;21088;-83
2023/02/24 09:41:53;;;;;;;14.73;2.27;;;;;;;2.11;87.51;98027.78;1542517;92;21562;-78
2023/02/24 09:44:44;;;;;;;11.90;2.27;;;;;;;2.16;87.44;98027.60;1571821;91;21087;-82
2023/02/24 09:47:55;;;;;;;10.45;2.15;;;;;;;2.17;87.23;98019.80;1571842;90;20996;-78
2023/02/24 10:05:38;;;;;;;12.13;2.77;;;;;;;2.21;86.50;97992.17;1515888;94;21129;-78
2023/02/24 10:08:36;;;;;;;;;;;;;;;;;;;;;
2023/02/24 10:11:10;;;;;;;22.17;3.27;;;;;;;2.34;86.73;97976.61;1512068;94;21990;-77
2023/02/24 10:34:36;;;;;;;10.30;2.87;;;;;;;2.63;86.11;97948.77;1405704;102;21208;-81
2023/02/24 10:41:09;;;;;;;8.95;2.25;;;;;;;2.85;85.72;97946.92;1406165;99;21104;-77
2023/02/24 10:47:58;;;;;;;11.20;2.65;;;;;;;2.97;85.60;97940.83;1440577;98;21487;-77
2023/02/24 10:58:48;;;;;;;10.18;2.45;;;;;;;2.78;85.04;97926.20;1463522;97;21204;-82
2023/02/24 11:05:37;;;;;;;11.48;2.70;;;;;;;2.67;84.61;97915.53;1521943;92;21149;-86
2023/02/24 11:08:35;;;;;;;9.13;2.70;;;;;;;2.64;84.54;97904.08;1548147;92;21021;-84
2023/02/24 11:11:05;;;;;;;11.30;2.33;;;;;;;2.61;84.48;97890.05;1548114;92;21018;-84
2023/02/24 11:19:11;;;;;;;12.45;3.08;;;;;;;2.70;84.14;97883.19;1479080;96;21376;-88
2023/02/24 11:21:58;;;;;;;11.20;2.10;;;;;;;2.73;83.90;97883.05;1462179;97;21048;-83
2023/02/24 11:24:44;;;;;;;16.67;3.75;;;;;;;2.75;83.85;97886.86;1433722;99;21147;-87
2023/02/24 11:30:29;;;;;;;9.13;2.58;;;;;;;2.78;83.36;97887.55;1398379;99;21251;-85
2023/02/24 11:33:24;;;;;;;9.90;2.33;;;;;;;2.82;83.55;97865.87;1393198;101;21207;-87
2023/02/24 11:36:21;;;;;;;7.47;2.17;;;;;;;2.97;83.72;97871.22;1426005;99;21118;-84
2023/02/24 11:39:28;;;;;;;15.05;2.52;;;;;;;3.05;83.55;97856.23;1425175;100;21185;-87
2023/02/24 11:42:08;;;;;;;10.43;2.12;;;;;;;3.01;82.83;97867.61;1424925;100;21117;-86
2023/02/24 11:44:48;;;;;;;10.08;2.40;;;;;;;2.98;83.00;97849.71;1424732;100;21428;-86
2023/02/24 11:47:25;;;;;;;8.18;2.25;;;;;;;3.06;83.15;97842.45;1425027;100;22039;-82
2023/02/24 11:50:48;;;;;;;10.08;2.27;;;;;;;3.12;83.10;97835.26;1425299;99;21726;-86
2023/02/24 11:53:32;;;;;;;11.48;2.30;;;;;;;3.05;82.37;97845.92;1372177;103;21182;-88
2023/02/24 11:56:13;;;;;;;10.10;2.00;;;;;;;2.98;82.58;97839.40;1436853;99;21673;-87
2023/02/24 11:59:11;;;;;;;6.55;1.98;;;;;;;2.97;82.34;97831.27;1441296;99;21110;-87
2023/02/24 12:02:10;;;;;;;12.53;2.72;;;;;;;2.91;82.33;97829.37;1440534;99;21622;-85
2023/02/24 12:08:02;;;;;;;9.85;2.60;;;;;;;3.05;82.43;97817.56;1386052;102;21200;-87
2023/02/24 12:10:45;;;;;;;14.07;3.20;;;;;;;3.18;82.36;97816.08;1392938;101;21211;-85
2023/02/24 12:13:45;;;;;;;;;;;;;;;;;;;;;
2023/02/24 12:16:28;;;;;;;8.95;2.00;;;;;;;3.21;82.14;97800.45;1388015;103;21112;-86
2023/02/24 12:19:14;;;;;;;7.70;2.50;;;;;;;3.27;81.80;97810.47;1393432;103;21128;-82
2023/02/24 12:21:53;;;;;;;8.13;2.33;;;;;;;3.22;81.73;97795.70;1431644;98;21092;-84
2023/02/24 12:24:33;;;;;;;5.15;2.00;;;;;;;3.29;81.50;97794.94;1443820;98;21653;-83
2023/02/24 12:27:18;;;;;;;5.95;1.92;;;;;;;3.34;81.61;97802.83;1426506;99;21092;-84
2023/02/24 12:30:35;;;;;;;8.88;2.40;;;;;;;3.32;81.43;97817.53;1441705;98;22016;-85
2023/02/24 12:33:45;;;;;;;11.00;1.92;;;;;;;3.28;81.33;97793.27;1431841;100;21170;-84
2023/02/24 12:36:42;;;;;;;8.50;2.20;;;;;;;3.23;81.18;97788.33;1457143;98;21049;-84
2023/02/24 12:39:20;;;;;;;10.15;2.40;;;;;;;3.20;80.93;97783.32;1455559;97;21137;-85
2023/02/24 12:42:25;;;;;;;14.70;2.70;;;;;;;3.16;80.87;97788.69;1456339;98;21648;-80
2023/02/24 12:45:20;;;;;;;10.53;1.97;;;;;;;3.10;80.35;97776.92;1458161;98;21135;-81
2023/02/24 12:48:15;;;;;;;9.03;1.95;;;;;;;3.11;80.58;97767.02;1456693;98;22038;-83
2023/02/24 12:51:23;;;;;;;14.75;3.90;;;;;;;3.12;80.12;97764.80;1456236;98;21411;-84
2023/02/24 12:54:24;;;;;;;13.43;5.00;;;;;;;3.13;80.29;97766.00;1389999;102;21091;-82
2023/02/24 12:57:28;;;;;;;15.93;4.75;;;;;;;3.17;79.64;97755.11;1396444;101;21445;-84
2023/02/24 13:00:04;;;;;;;13.62;4.47;;;;;;;3.15;79.87;97751.76;1400869;102;21182;-83
2023/02/24 13:03:12;;;;;;;10.53;2.55;;;;;;;3.19;79.80;97742.95;1413786;95;21067;-83
2023/02/24 13:06:09;;;;;;;12.10;4.07;;;;;;;3.22;79.92;97732.51;1503693;94;21649;-83
2023/02/24 13:08:57;;;;;;;12.55;2.47;;;;;;;3.33;79.90;97737.11;1503734;95;21094;-82
2023/02/24 13:11:53;;;;;;;7.45;2.30;;;;;;;3.44;79.67;97721.10;1503791;95;21122;-85
2023/02/24 13:14:33;;;;;;;11.47;3.50;;;;;;;3.50;79.56;97725.95;1503403;95;21371;-86
2023/02/24 13:17:20;;;;;;;9.90;3.37;;;;;;;3.56;79.50;97720.50;1503881;95;21054;-82
2023/02/24 13:19:56;;;;;;;11.88;4.42;;;;;;;3.55;79.26;97716.23;1504113;93;21093;-84
2023/02/24 13:22:30;;;;;;;7.37;2.37;;;;;;;3.58;79.39;97709.19;1476416;93;21447;-81
2023/02/24 13:25:08;;;;;;;7.37;2.15;;;;;;;3.59;79.15;97711.31;1504131;95;21417;-82
2023/02/24 13:27:45;;;;;;;8.80;2.08;;;;;;;3.60;79.02;97712.97;1503980;95;21534;-83
2023/02/24 13:30:36;;;;;;;9.20;2.20;;;;;;;3.65;79.11;97712.28;1534939;90;21056;-83
2023/02/24 13:33:22;;;;;;;11.00;3.77;;;;;;;3.71;78.60;97701.63;1575482;91;21029;-84
2023/02/24 13:36:08;;;;;;;9.53;2.85;;;;;;;3.70;78.53;97702.56;1575180;91;21545;-85
2023/02/24 13:38:43;;;;;;;11.22;2.92;;;;;;;3.71;78.45;97703.39;1575250;91;21089;-85
2023/02/24 13:41:32;;;;;;;10.20;2.12;;;;;;;3.73;78.30;97688.66;1575275;91;21058;-84
2023/02/24 13:44:08;;;;;;;7.17;2.62;;;;;;;3.73;78.51;97686.91;1575377;91;21465;-86
2023/02/24 13:47:28;;;;;;;7.22;2.40;;;;;;;3.64;78.02;97684.81;1573894;91;21613;-85
2023/02/24 13:50:32;;;;;;;13.60;3.52;;;;;;;3.60;77.93;97687.16;1575221;91;21017;-88
2023/02/24 13:53:36;;;;;;;10.88;3.85;;;;;;;3.53;78.00;97675.05;1575637;91;21066;-85
2023/02/24 13:56:25;;;;;;;10.15;4.08;;;;;;;3.50;77.48;97684.66;1575210;91;21309;-87
2023/02/24 13:59:25;;;;;;;9.55;3.77;;;;;;;3.43;77.97;97683.33;1575515;91;21058;-89
2023/02/24 14:02:06;;;;;;;12.80;5.12;;;;;;;3.49;78.12;97676.56;1575125;91;21002;-88
2023/02/24 14:04:42;;;;;;;6.87;3.55;;;;;;;3.49;77.64;97677.38;1572317;91;21629;-87
2023/02/24 14:07:21;;;;;;;12.13;3.75;;;;;;;3.46;77.50;97678.01;1573038;91;21078;-89
2023/02/24 14:09:52;;;;;;;12.55;3.10;;;;;;;3.41;77.64;97667.08;1574346;91;21452;-89
2023/02/24 14:12:29;;;;;;;12.00;3.27;;;;;;;3.30;77.63;97660.72;1575924;91;21079;-85
2023/02/24 14:15:18;;;;;;;15.88;3.98;;;;;;;3.25;77.27;97659.28;1575368;91;21553;-86
2023/02/24 14:18:06;;;;;;;16.00;4.22;;;;;;;3.19;77.38;97660.42;1555581;91;21008;-92
2023/02/24 14:23:34;;;;;;;12.00;3.58;;;;;;;3.15;77.21;97666.66;1544564;91;21086;-86
2023/02/24 14:26:12;;;;;;;13.45;4.17;;;;;;;3.08;77.16;97654.97;1566825;91;21835;-88
2023/02/24 14:28:45;;;;;;;15.13;4.35;;;;;;;3.07;77.17;97655.89;1574285;91;21088;-85
2023/02/24 14:31:18;;;;;;;10.43;2.98;;;;;;;3.13;77.34;97651.71;1529487;91;21141;-84
2023/02/24 14:33:58;;;;;;;8.03;2.42;;;;;;;3.23;77.20;97652.92;1556989;91;21037;-82
2023/02/24 14:36:42;;;;;;;12.58;3.40;;;;;;;3.24;77.04;97653.29;1575150;91;21066;-83
2023/02/24 14:39:36;;;;;;;8.78;2.90;;;;;;;3.27;77.39;97650.55;1575083;91;21108;-84
2023/02/24 14:42:13;;;;;;;11.63;3.83;;;;;;;3.35;77.13;97648.42;1573791;91;21816;-84
2023/02/24 14:44:54;;;;;;;17.15;5.15;;;;;;;3.25;77.12;97647.24;1575458;90;21098;-84
2023/02/24 14:47:30;;;;;;;6.08;2.45;;;;;;;3.28;77.44;97643.22;1575096;91;21529;-85
2023/02/24 14:50:10;;;;;;;48.65;23.22;;;;;;;3.29;77.18;97634.55;1574869;91;21021;-83
2023/02/24 14:53:01;;;;;;;13.72;5.17;;;;;;;3.21;77.22;97630.23;1575133;91;21082;-84
2023/02/24 14:55:40;;;;;;;11.00;4.10;;;;;;;3.19;77.24;97622.20;1573206;91;21889;-83
2023/02/24 14:58:35;;;;;;;9.15;3.22;;;;;;;3.09;77.08;97623.14;1575187;91;21014;-85
2023/02/24 15:01:24;;;;;;;;;;;;;;;;;;;;;
2023/02/24 15:04:02;;;;;;;12.65;2.80;;;;;;;2.95;77.53;97616.55;1513026;94;21056;-84
2023/02/24 15:06:51;;;;;;;12.13;3.55;;;;;;;2.90;77.39;97613.73;1548585;91;21053;-85
2023/02/24 15:09:39;;;;;;;14.20;3.30;;;;;;;2.77;77.35;97592.05;1574728;91;20986;-83
2023/02/24 15:12:30;;;;;;;9.80;3.20;;;;;;;2.72;77.44;97596.62;1574291;91;21062;-83
2023/02/24 15:15:21;;;;;;;13.25;3.58;;;;;;;2.68;77.43;97589.94;1574955;91;21055;-84
2023/02/24 15:18:01;;;;;;;14.33;3.50;;;;;;;2.67;77.44;97583.13;1575260;91;21075;-83
2023/02/24 15:20:40;;;;;;;12.13;4.08;;;;;;;2.61;77.52;97571.38;1574866;91;21013;-84
2023/02/24 15:23:30;;;;;;;13.83;3.83;;;;;;;2.60;77.61;97565.00;1575401;91;21050;-85
2023/02/24 15:26:11;;;;;;;14.85;3.70;;;;;;;2.59;77.49;97571.08;1574127;91;21069;-83
2023/02/24 15:28:44;;;;;;;14.83;4.20;;;;;;;2.56;77.52;97563.50;1573780;91;21810;-84
2023/02/24 15:31:21;;;;;;;12.05;4.42;;;;;;;2.53;77.66;97562.37;1575703;91;20978;-84
2023/02/24 15:34:05;;;;;;;12.10;4.70;;;;;;;2.46;77.61;97557.52;1580212;90;21018;-85
2023/02/24 15:36:38;;;;;;;13.32;4.87;;;;;;;2.41;77.90;97559.48;1578418;90;21559;-85
2023/02/24 15:39:22;;;;;;;8.13;3.47;;;;;;;2.38;77.73;97554.48;1579979;91;21048;-87
2023/02/24 15:41:59;;;;;;;11.88;3.22;;;;;;;2.42;77.72;97545.69;1574779;91;21038;-85
2023/02/24 15:44:36;;;;;;;12.28;3.27;;;;;;;2.36;77.69;97542.13;1577391;90;21501;-86
2023/02/24 15:47:32;;;;;;;10.25;3.72;;;;;;;2.33;77.87;97540.99;1579992;91;21017;-83
2023/02/24 15:50:05;;;;;;;14.80;3.58;;;;;;;2.30;77.93;97541.15;1579278;90;21045;-88
2023/02/24 15:52:36;;;;;;;9.30;3.15;;;;;;;2.29;78.02;97535.59;1580092;91;21407;-86
2023/02/24 15:55:11;;;;;;;6.45;3.05;;;;;;;2.30;77.89;97528.27;1579930;91;20986;-87
2023/02/24 15:57:41;;;;;;;12.13;4.47;;;;;;;2.27;78.00;97525.85;1579889;91;21010;-86
2023/02/24 16:00:24;;;;;;;11.53;3.67;;;;;;;2.27;78.21;97522.42;1579837;91;21800;-86
2023/02/24 16:02:51;;;;;;;14.83;4.28;;;;;;;2.27;78.30;97521.12;1578470;90;21128;-92
2023/02/24 16:05:26;;;;;;;13.70;4.58;;;;;;;2.25;78.18;97527.66;1579913;91;20997;-88
2023/02/24 16:07:59;;;;;;;10.58;3.65;;;;;;;2.20;78.59;97514.17;1579488;91;21505;-86
2023/02/24 16:10:35;;;;;;;9.03;3.58;;;;;;;2.18;78.51;97521.12;1579886;91;20982;-87
2023/02/24 16:13:11;;;;;;;12.33;3.92;;;;;;;2.18;78.56;97526.27;1579876;91;21597;-84
2023/02/24 16:15:44;;;;;;;10.28;3.70;;;;;;;2.16;78.52;97528.94;1579624;90;21081;-88
2023/02/24 16:18:25;;;;;;;7.72;3.15;;;;;;;2.15;78.60;97521.27;1580225;91;21033;-87
2023/02/24 16:20:59;;;;;;;10.48;3.58;;;;;;;2.15;78.76;97518.70;1580181;91;21002;-86
2023/02/24 16:23:39;;;;;;;8.53;3.50;;;;;;;2.12;78.88;97521.43;1580034;91;20986;-86
2023/02/24 16:26:04;;;;;;;10.35;3.67;;;;;;;2.09;78.84;97503.56;1579270;90;21061;-84
2023/02/24 16:28:38;;;;;;;9.30;3.25;;;;;;;2.05;79.08;97517.50;1579960;91;21009;-85
2023/02/24 16:31:16;;;;;;;7.97;3.42;;;;;;;2.03;79.25;97500.00;1581504;90;20998;-89
2023/02/24 16:33:47;;;;;;;8.10;3.10;;;;;;;2.04;79.28;97502.94;1572295;90;21172;-92
2023/02/24 16:36:19;;;;;;;8.85;3.12;;;;;;;2.01;79.38;97497.02;1554635;91;21031;-90
2023/02/24 16:38:52;;;;;;;8.80;2.92;;;;;;;1.98;79.43;97492.03;1571426;91;21074;-85
2023/02/24 16:41:25;;;;;;;11.97;3.40;;;;;;;1.92;79.59;97492.33;1571475;91;21344;-83
2023/02/24 16:43:58;;;;;;;12.93;3.27;;;;;;;1.91;79.79;97486.81;1571502;91;21038;-89
2023/02/24 16:46:36;;;;;;;9.30;3.75;;;;;;;1.90;79.90;97482.55;1571510;91;21102;-88
2023/02/24 16:49:23;;;;;;;;;;;;;;;;;;;;;
2023/02/24 16:51:48;;;;;;;11.90;3.98;;;;;;;1.89;80.17;97479.61;1556317;91;21154;-84
2023/02/24 16:54:27;;;;;;;8.73;3.62;;;;;;;1.84;80.11;97468.70;1571567;91;21093;-88
2023/02/24 16:57:09;;;;;;;;;;;;;;;;;;;;;
2023/02/24 16:59:33;;;;;;;8.93;4.35;;;;;;;1.83;80.28;97465.76;1496059;94;21174;-86
2023/02/24 17:02:14;;;;;;;10.65;5.00;;;;;;;1.82;80.55;97470.54;1497771;95;21103;-84
2023/02/24 17:04:51;;;;;;;8.60;3.67;;;;;;;1.81;80.53;97457.73;1498991;95;21143;-82
2023/02/24 17:07:24;;;;;;;15.50;5.45;;;;;;;1.82;80.88;97458.09;1498770;95;21112;-82
2023/02/24 17:09:57;;;;;;;13.90;4.53;;;;;;;1.82;80.72;97459.39;1497910;95;21063;-82
2023/02/24 17:12:28;;;;;;;13.83;5.70;;;;;;;1.78;80.88;97453.56;1497923;95;21079;-85
2023/02/24 17:14:58;;;;;;;11.12;5.00;;;;;;;1.79;80.70;97459.08;1498744;95;21033;-84
2023/02/24 17:17:35;;;;;;;12.18;5.22;;;;;;;1.74;81.11;97446.91;1498162;95;21627;-85
2023/02/24 17:20:14;;;;;;;11.57;4.55;;;;;;;1.73;81.11;97452.94;1499158;95;21108;-86
2023/02/24 17:22:46;;;;;;;10.85;4.60;;;;;;;1.72;81.14;97450.00;1479691;96;21095;-89
2023/02/24 17:25:30;;;;;;;11.25;4.67;;;;;;;1.68;81.45;97448.47;1498427;95;21140;-83
2023/02/24 17:28:05;;;;;;;12.75;4.78;;;;;;;1.65;81.43;97448.16;1440458;99;21888;-89
2023/02/24 17:30:38;;;;;;;16.82;4.95;;;;;;;1.66;81.71;97436.16;1437272;99;21119;-85
2023/02/24 17:33:13;;;;;;;7.92;4.10;;;;;;;1.71;81.72;97439.31;1441283;97;21131;-82
2023/02/24 17:35:47;;;;;;;14.38;4.70;;;;;;;1.71;81.78;97439.31;1441030;99;21583;-81
2023/02/24 17:38:39;;;;;;;10.50;4.10;;;;;;;1.68;81.91;97435.60;1491988;96;21139;-80
2023/02/24 17:40:57;;;;;;;10.23;4.22;;;;;;;1.72;81.99;97433.28;1484966;96;21880;-82
2023/02/24 17:43:36;;;;;;;9.25;4.20;;;;;;;1.75;82.06;97434.42;1492199;96;21058;-80
2023/02/24 17:46:15;;;;;;;12.95;4.92;;;;;;;1.74;82.16;97431.48;1492054;96;21078;-80
2023/02/24 17:49:04;;;;;;;;;;;;;;;;;;;;;
2023/02/24 17:51:38;;;;;;;10.80;4.95;;;;;;;1.74;82.28;97421.19;1470783;96;21265;-80
2023/02/24 17:54:21;;;;;;;9.85;4.30;;;;;;;1.74;82.48;97426.33;1440864;99;21100;-81